Time;durP1;ratioP1;P1;durP2;ratioP2;P2;SDS_P1;SDS_P2;PMS_P1;PMS_P2;Temp;Humidity;BMP_temperature;BMP_pressure;BME280_temperature;BME280_humidity;BME280_pressure;Samples;Min_cycle;Max_cycle;Signal;HPM_P1;HPM_P2
2021/03/25 00:01:16;;;;;;;43.33;21.07;;;10.70;99.90;;;;;;5065688;28;21749;-61
2021/03/25 00:03:46;;;;;;;35.40;21.40;;;10.80;99.90;;;;;;5088076;28;20206;-62
2021/03/25 00:06:13;;;;;;;37.57;20.27;;;10.80;99.90;;;;;;5072363;28;20274;-62
2021/03/25 00:08:40;;;;;;;41.50;21.23;;;10.80;99.90;;;;;;5083868;28;20244;-61
2021/03/25 00:11:06;;;;;;;44.10;22.20;;;10.80;99.90;;;;;;5086363;28;20193;-61
2021/03/25 00:13:32;;;;;;;45.87;20.83;;;10.60;99.90;;;;;;5068146;28;20236;-63
2021/03/25 00:15:59;;;;;;;42.13;23.43;;;10.70;99.90;;;;;;5082120;28;20206;-61
2021/03/25 00:18:25;;;;;;;41.53;22.37;;;10.50;99.90;;;;;;5088989;28;20277;-62
2021/03/25 00:20:52;;;;;;;38.30;21.80;;;10.50;99.90;;;;;;5085117;28;20212;-62
2021/03/25 00:23:19;;;;;;;43.97;22.17;;;10.40;99.90;;;;;;5087566;28;20325;-62
2021/03/25 00:25:46;;;;;;;43.43;21.60;;;10.00;99.90;;;;;;5086514;28;20214;-62
2021/03/25 00:28:14;;;;;;;37.03;20.93;;;9.90;99.90;;;;;;5086921;28;20200;-61
2021/03/25 00:30:41;;;;;;;41.03;20.87;;;9.80;99.90;;;;;;5085740;28;20676;-61
2021/03/25 00:33:11;;;;;;;39.37;21.33;;;9.60;99.90;;;;;;5065719;28;20237;-61
2021/03/25 00:35:40;;;;;;;37.37;19.70;;;9.60;99.90;;;;;;5085333;28;20652;-63
2021/03/25 00:38:08;;;;;;;36.93;20.67;;;9.90;99.90;;;;;;5083322;28;20197;-61
2021/03/25 00:40:46;;;;;;;39.33;19.87;;;9.80;99.90;;;;;;5085543;28;20288;-62
2021/03/25 00:43:14;;;;;;;35.07;20.30;;;9.70;99.90;;;;;;5084462;28;20728;-61
2021/03/25 00:45:44;;;;;;;39.67;22.10;;;9.50;99.90;;;;;;5083780;28;20697;-61
2021/03/25 00:48:11;;;;;;;36.30;19.47;;;9.40;99.90;;;;;;5082100;28;20314;-61
2021/03/25 00:50:44;;;;;;;42.93;20.87;;;9.40;99.90;;;;;;5072445;28;20201;-61
2021/03/25 00:53:13;;;;;;;37.37;20.60;;;9.50;99.90;;;;;;5084435;28;20285;-63
2021/03/25 00:55:40;;;;;;;35.90;19.77;;;9.80;99.90;;;;;;5088348;28;20241;-61
2021/03/25 00:58:06;;;;;;;40.93;19.87;;;10.00;99.90;;;;;;5086990;28;20595;-62
2021/03/25 01:00:37;;;;;;;40.87;20.17;;;10.20;99.90;;;;;;5085272;28;20248;-61
2021/03/25 01:03:04;;;;;;;35.67;20.60;;;10.30;99.90;;;;;;5082937;28;20434;-61
2021/03/25 01:05:31;;;;;;;35.43;19.63;;;10.40;99.90;;;;;;5063545;28;20224;-62
2021/03/25 01:07:58;;;;;;;42.37;20.07;;;10.30;99.90;;;;;;5079967;28;20223;-62
2021/03/25 01:10:50;;;;;;;33.60;18.63;;;10.40;99.90;;;;;;5088075;28;20631;-62
2021/03/25 01:13:52;;;;;;;41.73;20.03;;;10.50;99.90;;;;;;5080318;28;20695;-62
2021/03/25 01:16:26;;;;;;;37.90;20.00;;;10.50;99.90;;;;;;5078656;28;20244;-61
2021/03/25 01:18:54;;;;;;;33.40;18.20;;;10.50;99.90;;;;;;5085212;28;20527;-62
2021/03/25 01:21:21;;;;;;;33.50;18.63;;;10.50;99.90;;;;;;5085379;28;20229;-66
2021/03/25 01:23:47;;;;;;;35.63;19.90;;;10.00;99.90;;;;;;5084794;28;20287;-62
2021/03/25 01:26:14;;;;;;;35.40;19.63;;;9.70;99.90;;;;;;5085738;28;20784;-61
2021/03/25 01:28:41;;;;;;;35.13;19.87;;;9.70;99.90;;;;;;5085526;28;20226;-62
2021/03/25 01:31:07;;;;;;;34.33;19.40;;;9.70;99.90;;;;;;5083639;28;20241;-63
2021/03/25 01:33:33;;;;;;;33.47;19.33;;;9.80;99.90;;;;;;5084449;28;20652;-62
2021/03/25 01:36:00;;;;;;;33.73;19.87;;;9.80;99.90;;;;;;5087862;28;20201;-62
2021/03/25 01:38:28;;;;;;;40.97;19.53;;;10.00;99.90;;;;;;5066741;28;20196;-61
2021/03/25 01:40:58;;;;;;;35.73;20.67;;;10.00;99.90;;;;;;5086215;28;20667;-61
2021/03/25 01:43:36;;;;;;;34.07;20.27;;;9.80;99.90;;;;;;5086297;28;20267;-63
2021/03/25 01:46:19;;;;;;;33.87;18.80;;;9.80;99.90;;;;;;5086674;28;20229;-63
2021/03/25 01:48:53;;;;;;;38.07;19.70;;;9.90;99.90;;;;;;5083352;28;20220;-62
2021/03/25 01:51:35;;;;;;;38.67;20.43;;;10.10;99.90;;;;;;5087733;28;20196;-61
2021/03/25 01:54:33;;;;;;;33.50;18.20;;;10.10;99.90;;;;;;5081187;28;20201;-61
2021/03/25 01:57:26;;;;;;;37.93;19.60;;;10.20;99.90;;;;;;5083379;28;20242;-63
2021/03/25 02:00:30;;;;;;;36.63;19.73;;;10.00;99.90;;;;;;5081141;28;20230;-62
2021/03/25 02:03:24;;;;;;;37.17;18.93;;;10.10;99.90;;;;;;5082066;28;20228;-61
2021/03/25 02:06:16;;;;;;;36.83;19.77;;;9.90;99.90;;;;;;5085706;28;20232;-61
2021/03/25 02:09:04;;;;;;;35.20;19.67;;;9.80;99.90;;;;;;5077274;28;20237;-62
2021/03/25 02:12:18;;;;;;;37.63;19.77;;;9.50;99.90;;;;;;5068238;28;20262;-61
2021/03/25 02:14:47;;;;;;;34.63;18.80;;;9.50;99.90;;;;;;5083592;28;20644;-62
2021/03/25 02:17:27;;;;;;;41.90;21.63;;;9.60;99.90;;;;;;5081055;28;20296;-62
2021/03/25 02:20:11;;;;;;;41.23;19.63;;;9.50;99.90;;;;;;5084033;28;20207;-63
2021/03/25 02:22:57;;;;;;;36.57;20.43;;;9.60;99.90;;;;;;5067179;28;20232;-63
2021/03/25 02:25:33;;;;;;;36.23;19.57;;;9.50;99.90;;;;;;5080741;28;20264;-62
2021/03/25 02:28:14;;;;;;;35.37;19.80;;;9.40;99.90;;;;;;5089701;28;20205;-63
2021/03/25 02:30:44;;;;;;;38.70;20.40;;;9.50;99.90;;;;;;5087376;28;20322;-62
2021/03/25 02:33:16;;;;;;;37.53;18.40;;;9.50;99.90;;;;;;5089051;28;20669;-62
2021/03/25 02:35:55;;;;;;;46.10;20.23;;;9.40;99.90;;;;;;5084521;28;20557;-63
2021/03/25 02:38:38;;;;;;;37.97;20.07;;;9.40;99.90;;;;;;5088688;28;20698;-62
2021/03/25 02:41:12;;;;;;;43.63;20.03;;;9.60;99.90;;;;;;5088948;28;20290;-61
2021/03/25 02:44:01;;;;;;;34.47;19.77;;;9.70;99.90;;;;;;5086095;28;20247;-62
2021/03/25 02:46:31;;;;;;;43.40;20.43;;;9.50;99.90;;;;;;5083925;28;20205;-63
2021/03/25 02:49:03;;;;;;;39.17;19.67;;;9.60;99.90;;;;;;5086310;28;20242;-61
2021/03/25 02:51:37;;;;;;;47.63;21.33;;;9.40;99.90;;;;;;5086653;28;20289;-63
2021/03/25 02:54:05;;;;;;;38.13;20.30;;;9.30;99.90;;;;;;5090006;28;20555;-63
2021/03/25 02:56:53;;;;;;;42.10;21.23;;;9.30;99.90;;;;;;5087921;28;20337;-62
2021/03/25 02:59:36;;;;;;;42.80;20.40;;;9.40;99.90;;;;;;5089597;28;20336;-63
2021/03/25 03:02:12;;;;;;;43.37;20.93;;;9.30;99.90;;;;;;5086437;28;20627;-61
2021/03/25 03:04:40;;;;;;;39.67;21.93;;;9.40;99.90;;;;;;5083772;28;20494;-61
2021/03/25 03:07:11;;;;;;;35.80;20.77;;;9.50;99.90;;;;;;5087251;28;20193;-63
2021/03/25 03:09:41;;;;;;;45.67;21.07;;;9.60;99.90;;;;;;5087069;28;20228;-64
2021/03/25 03:12:30;;;;;;;39.43;20.13;;;9.80;99.90;;;;;;5088060;28;20200;-61
2021/03/25 03:15:02;;;;;;;38.03;21.57;;;9.80;99.90;;;;;;5088046;28;20227;-62
2021/03/25 03:17:36;;;;;;;35.97;19.80;;;9.70;99.90;;;;;;5088460;28;20205;-63
2021/03/25 03:20:42;;;;;;;42.43;21.43;;;9.30;99.90;;;;;;5087452;28;20207;-63
2021/03/25 03:23:09;;;;;;;41.57;20.50;;;9.50;99.90;;;;;;5088009;28;20708;-63
2021/03/25 03:25:39;;;;;;;39.70;20.93;;;9.60;99.90;;;;;;5087567;28;20223;-62
2021/03/25 03:28:26;;;;;;;46.27;23.33;;;9.70;99.90;;;;;;5087200;28;20195;-62
2021/03/25 03:30:59;;;;;;;40.80;20.27;;;9.60;99.90;;;;;;5088016;28;20193;-63
2021/03/25 03:33:32;;;;;;;39.17;19.90;;;9.60;99.90;;;;;;5067998;28;20204;-62
2021/03/25 03:36:03;;;;;;;41.80;21.83;;;9.40;99.90;;;;;;5085191;28;20352;-62
2021/03/25 03:38:45;;;;;;;38.43;21.00;;;9.50;99.90;;;;;;5087710;28;20295;-63
2021/03/25 03:41:15;;;;;;;36.83;19.50;;;9.60;99.90;;;;;;5087213;28;20227;-62
2021/03/25 03:43:43;;;;;;;40.30;20.57;;;9.50;99.90;;;;;;5088601;28;20266;-63
2021/03/25 03:46:22;;;;;;;42.60;22.33;;;9.50;99.90;;;;;;5069296;28;20658;-61
2021/03/25 03:49:00;;;;;;;40.30;20.83;;;9.40;99.90;;;;;;5086419;28;20238;-62
2021/03/25 03:51:31;;;;;;;46.37;21.70;;;9.50;99.90;;;;;;5069932;28;20264;-61
2021/03/25 03:54:01;;;;;;;40.27;21.30;;;9.40;99.90;;;;;;5070552;28;20201;-61
2021/03/25 03:56:57;;;;;;;38.20;20.60;;;9.50;99.90;;;;;;5088101;28;20664;-62
2021/03/25 03:59:55;;;;;;;42.93;21.90;;;9.50;99.90;;;;;;5081496;28;20564;-62
2021/03/25 04:02:45;;;;;;;34.43;19.03;;;9.50;99.90;;;;;;5065628;28;20206;-63
2021/03/25 04:05:30;;;;;;;38.23;20.63;;;9.50;99.90;;;;;;5085328;28;20220;-61
2021/03/25 04:08:03;;;;;;;44.97;21.00;;;9.50;99.90;;;;;;5087702;28;20357;-63
2021/03/25 04:10:57;;;;;;;41.67;21.40;;;9.60;99.90;;;;;;5086364;28;20218;-63
2021/03/25 04:13:32;;;;;;;40.73;21.80;;;9.40;99.90;;;;;;5078207;28;20216;-62
2021/03/25 04:15:59;;;;;;;42.20;20.93;;;9.10;99.90;;;;;;5085948;28;20240;-61
2021/03/25 04:18:32;;;;;;;43.57;21.33;;;9.30;99.90;;;;;;5085935;28;20203;-61
2021/03/25 04:21:07;;;;;;;39.97;21.53;;;9.50;99.90;;;;;;5085207;28;20642;-61
2021/03/25 04:23:37;;;;;;;40.03;21.47;;;9.50;99.90;;;;;;5088943;28;20202;-61
2021/03/25 04:26:26;;;;;;;45.70;21.63;;;9.50;99.90;;;;;;5084262;28;20258;-62
2021/03/25 04:29:15;;;;;;;37.77;21.10;;;9.50;99.90;;;;;;5083164;28;20193;-61
2021/03/25 04:31:42;;;;;;;42.57;21.40;;;9.50;99.90;;;;;;5083556;28;20295;-61
2021/03/25 04:34:10;;;;;;;43.13;21.03;;;9.40;99.90;;;;;;5086550;28;20263;-63
2021/03/25 04:36:40;;;;;;;44.73;22.03;;;9.30;99.90;;;;;;5068914;28;20620;-64
2021/03/25 04:39:09;;;;;;;44.87;23.57;;;9.40;99.90;;;;;;5082491;28;20216;-62
2021/03/25 04:41:38;;;;;;;45.90;22.97;;;9.30;99.90;;;;;;5084026;28;20228;-63
2021/03/25 04:44:08;;;;;;;38.97;21.37;;;9.30;99.90;;;;;;5082152;28;20728;-63
2021/03/25 04:47:05;;;;;;;50.33;22.53;;;9.30;99.90;;;;;;5086675;28;20608;-62
2021/03/25 04:49:37;;;;;;;47.50;22.33;;;9.30;99.90;;;;;;5084676;28;20209;-62
2021/03/25 04:52:10;;;;;;;43.50;23.23;;;9.30;99.90;;;;;;5068696;28;20598;-63
2021/03/25 04:54:39;;;;;;;45.53;23.00;;;9.40;99.90;;;;;;5087931;28;20620;-62
2021/03/25 04:57:21;;;;;;;41.87;22.83;;;9.30;99.90;;;;;;5083863;28;20271;-61
2021/03/25 04:59:47;;;;;;;42.50;22.40;;;9.10;99.90;;;;;;5069484;28;20226;-63
2021/03/25 05:02:14;;;;;;;39.87;22.67;;;9.00;99.90;;;;;;5067709;28;20260;-61
2021/03/25 05:04:44;;;;;;;44.20;22.40;;;9.10;99.90;;;;;;5063620;28;20219;-62
2021/03/25 05:07:16;;;;;;;45.17;23.00;;;9.20;99.90;;;;;;5087881;28;20229;-61
2021/03/25 05:09:43;;;;;;;40.07;21.90;;;9.20;99.90;;;;;;5085168;28;20286;-62
2021/03/25 05:12:14;;;;;;;42.10;22.10;;;9.00;99.90;;;;;;5086801;28;20216;-61
2021/03/25 05:14:42;;;;;;;46.60;23.53;;;8.80;99.90;;;;;;5085838;28;20705;-65
2021/03/25 05:17:14;;;;;;;42.53;22.53;;;8.70;99.90;;;;;;5087239;28;20651;-62
2021/03/25 05:20:05;;;;;;;41.93;23.27;;;8.90;99.90;;;;;;5087966;28;20252;-61
2021/03/25 05:22:44;;;;;;;42.07;22.67;;;8.70;99.90;;;;;;5075790;28;20203;-61
2021/03/25 05:25:55;;;;;;;46.70;24.67;;;8.70;99.90;;;;;;5086193;28;20266;-63
2021/03/25 05:28:33;;;;;;;43.30;23.17;;;8.90;99.90;;;;;;5062573;28;20200;-62
2021/03/25 05:31:01;;;;;;;43.77;23.37;;;9.10;99.90;;;;;;5082157;28;20249;-62
2021/03/25 05:33:31;;;;;;;46.10;23.67;;;9.10;99.90;;;;;;5085411;28;20193;-61
2021/03/25 05:36:04;;;;;;;43.40;22.93;;;8.90;99.90;;;;;;5085143;28;20214;-61
2021/03/25 05:38:30;;;;;;;46.47;22.40;;;9.00;99.90;;;;;;5068546;28;20226;-61
2021/03/25 05:41:05;;;;;;;46.47;23.07;;;9.10;99.90;;;;;;5083909;28;20642;-61
2021/03/25 05:43:56;;;;;;;45.23;23.47;;;8.90;99.90;;;;;;5083628;28;20276;-63
2021/03/25 05:46:44;;;;;;;44.47;23.30;;;8.80;99.90;;;;;;5084608;28;20236;-61
2021/03/25 05:49:25;;;;;;;45.60;24.10;;;8.80;99.90;;;;;;5085353;28;20192;-62
2021/03/25 05:52:28;;;;;;;44.63;23.53;;;8.90;99.90;;;;;;5085480;28;20250;-62
2021/03/25 05:55:05;;;;;;;44.77;23.53;;;9.00;99.90;;;;;;5005237;28;20224;-63
2021/03/25 05:57:49;;;;;;;39.63;22.77;;;9.10;99.90;;;;;;5084037;28;20235;-61
2021/03/25 06:00:38;;;;;;;47.87;24.10;;;9.00;99.90;;;;;;5083632;28;20893;-64
2021/03/25 06:03:10;;;;;;;44.93;24.33;;;8.80;99.90;;;;;;5083689;28;20242;-61
2021/03/25 06:05:38;;;;;;;47.33;23.83;;;8.90;99.90;;;;;;5088752;28;20644;-61
2021/03/25 06:08:18;;;;;;;44.60;23.23;;;8.50;99.90;;;;;;5089119;28;20276;-63
2021/03/25 06:11:11;;;;;;;38.57;22.63;;;8.10;99.90;;;;;;5088703;28;20222;-64
2021/03/25 06:14:01;;;;;;;46.00;24.17;;;8.10;99.90;;;;;;5084082;28;20682;-61
2021/03/25 06:16:48;;;;;;;44.83;24.50;;;8.40;99.90;;;;;;5084935;28;20205;-62
2021/03/25 06:19:32;;;;;;;44.40;23.93;;;8.00;99.90;;;;;;5091222;28;20200;-63
2021/03/25 06:22:19;;;;;;;42.27;24.87;;;7.80;99.90;;;;;;5089959;28;20203;-63
2021/03/25 06:24:58;;;;;;;48.63;23.87;;;7.70;99.90;;;;;;5090329;28;20263;-61
2021/03/25 06:27:36;;;;;;;50.77;25.97;;;7.70;99.90;;;;;;5087287;28;20691;-62
2021/03/25 06:30:12;;;;;;;41.40;24.17;;;7.90;99.90;;;;;;5088651;28;20265;-65
2021/03/25 06:32:59;;;;;;;47.63;25.93;;;8.00;99.90;;;;;;5081844;28;20200;-62
2021/03/25 06:35:42;;;;;;;48.20;24.07;;;7.90;99.90;;;;;;5088528;28;20642;-62
2021/03/25 06:38:24;;;;;;;47.30;26.00;;;7.90;99.90;;;;;;5082932;28;20253;-63
2021/03/25 06:41:09;;;;;;;45.70;25.17;;;8.20;99.90;;;;;;5081124;28;20228;-61
2021/03/25 06:43:44;;;;;;;52.40;25.00;;;8.40;99.90;;;;;;5083344;28;20707;-63
2021/03/25 06:46:37;;;;;;;41.23;24.90;;;8.30;99.90;;;;;;5083714;28;20224;-63
2021/03/25 06:49:32;;;;;;;40.63;23.07;;;8.10;99.90;;;;;;5088802;28;20192;-62
2021/03/25 06:52:14;;;;;;;42.03;23.40;;;8.10;99.90;;;;;;5068806;28;20227;-63
2021/03/25 06:54:40;;;;;;;48.80;25.87;;;8.10;99.90;;;;;;5089392;28;20198;-63
2021/03/25 06:57:15;;;;;;;49.07;25.47;;;8.10;99.90;;;;;;5070394;28;20219;-63
2021/03/25 06:59:43;;;;;;;43.17;24.13;;;8.20;99.90;;;;;;5085629;28;20241;-64
2021/03/25 07:02:09;;;;;;;46.43;25.33;;;8.30;99.90;;;;;;5076515;28;20222;-62
2021/03/25 07:04:40;;;;;;;49.23;26.10;;;8.30;99.90;;;;;;5085155;28;20658;-63
2021/03/25 07:07:15;;;;;;;44.77;24.50;;;8.20;99.90;;;;;;5087557;28;20223;-63
2021/03/25 07:09:41;;;;;;;49.83;25.47;;;8.40;99.90;;;;;;5086197;28;20303;-62
2021/03/25 07:12:33;;;;;;;47.13;25.17;;;8.60;99.90;;;;;;5085254;28;20290;-63
2021/03/25 07:15:00;;;;;;;45.30;24.47;;;8.50;99.90;;;;;;5088038;28;20230;-62
2021/03/25 07:17:32;;;;;;;47.07;24.93;;;8.60;99.90;;;;;;5085768;28;20747;-62
2021/03/25 07:20:03;;;;;;;48.83;23.73;;;8.70;99.90;;;;;;5084005;28;20564;-62
2021/03/25 07:22:31;;;;;;;48.43;25.10;;;8.70;99.90;;;;;;5083919;28;20257;-62
2021/03/25 07:25:18;;;;;;;48.23;25.13;;;8.90;99.90;;;;;;5088554;28;20301;-61
2021/03/25 07:27:45;;;;;;;51.37;25.43;;;9.00;99.90;;;;;;5061261;28;20261;-61
2021/03/25 07:30:44;;;;;;;45.07;23.30;;;9.10;99.90;;;;;;5085698;28;20220;-62
2021/03/25 07:33:15;;;;;;;48.73;24.40;;;9.50;99.90;;;;;;5083708;28;20226;-61
2021/03/25 07:35:54;;;;;;;42.30;23.43;;;9.80;99.90;;;;;;5086714;28;20202;-62
2021/03/25 07:38:29;;;;;;;43.57;22.93;;;9.80;99.90;;;;;;5088069;28;20278;-61
2021/03/25 07:41:19;;;;;;;45.83;22.57;;;9.80;99.90;;;;;;5088968;28;20262;-62
2021/03/25 07:44:04;;;;;;;40.37;22.00;;;9.80;99.90;;;;;;5081256;28;20338;-61
2021/03/25 07:46:48;;;;;;;40.60;21.60;;;9.70;99.90;;;;;;5063782;28;20212;-63
2021/03/25 07:49:26;;;;;;;41.10;21.70;;;9.60;99.90;;;;;;5088081;28;20196;-62
2021/03/25 07:51:57;;;;;;;42.37;22.57;;;9.70;99.90;;;;;;5066675;28;20198;-61
2021/03/25 07:54:26;;;;;;;39.70;22.23;;;10.00;99.90;;;;;;5065927;28;20198;-63
2021/03/25 07:57:02;;;;;;;43.27;20.87;;;10.00;99.90;;;;;;5088548;28;20648;-63
2021/03/25 07:59:30;;;;;;;42.10;21.83;;;10.50;99.90;;;;;;5071646;28;20216;-62
2021/03/25 08:01:57;;;;;;;39.80;20.70;;;10.60;99.90;;;;;;5084709;28;20201;-63
2021/03/25 08:04:27;;;;;;;31.67;20.90;;;10.30;99.90;;;;;;5070404;28;20554;-63
2021/03/25 08:07:12;;;;;;;45.90;21.47;;;10.30;99.90;;;;;;5085107;28;20199;-62
2021/03/25 08:09:51;;;;;;;41.03;20.57;;;10.90;99.90;;;;;;5071244;28;20199;-62
2021/03/25 08:12:28;;;;;;;32.27;19.17;;;11.30;99.90;;;;;;5087530;28;20645;-61
2021/03/25 08:15:14;;;;;;;37.37;20.70;;;11.90;99.90;;;;;;5088368;28;20682;-63
2021/03/25 08:18:15;;;;;;;39.43;19.70;;;12.50;99.90;;;;;;5083556;28;20205;-61
2021/03/25 08:20:57;;;;;;;30.27;16.73;;;12.60;99.90;;;;;;5081432;28;20235;-61
2021/03/25 08:23:29;;;;;;;33.13;19.17;;;12.50;99.90;;;;;;5068691;28;20564;-62
2021/03/25 08:26:09;;;;;;;33.50;17.80;;;12.20;99.90;;;;;;5088179;28;20265;-62
2021/03/25 08:28:56;;;;;;;28.90;17.67;;;12.40;99.90;;;;;;5086389;28;20278;-63
2021/03/25 08:31:32;;;;;;;30.13;17.17;;;12.70;99.90;;;;;;5080916;28;20219;-62
2021/03/25 08:34:20;;;;;;;31.93;18.10;;;12.40;99.90;;;;;;5089101;28;20232;-62
2021/03/25 08:37:19;;;;;;;28.00;16.27;;;12.40;99.90;;;;;;5081017;28;20190;-61
2021/03/25 08:39:57;;;;;;;32.33;16.67;;;12.20;99.90;;;;;;5088485;28;20227;-62
2021/03/25 08:42:36;;;;;;;25.40;15.90;;;12.00;99.90;;;;;;5086581;28;20221;-61
2021/03/25 08:45:02;;;;;;;25.40;14.87;;;12.30;99.90;;;;;;5082707;28;20909;-62
2021/03/25 08:47:50;;;;;;;26.37;16.10;;;12.30;99.90;;;;;;5080711;28;20211;-61
2021/03/25 08:50:34;;;;;;;23.33;14.23;;;12.50;99.90;;;;;;5082346;28;20205;-62
2021/03/25 08:53:13;;;;;;;28.40;15.20;;;12.70;99.90;;;;;;5063135;28;20292;-61
2021/03/25 08:55:40;;;;;;;23.47;14.47;;;12.50;99.90;;;;;;5085151;28;20206;-62
2021/03/25 08:58:23;;;;;;;22.20;13.27;;;12.70;99.90;;;;;;5088998;28;20202;-63
2021/03/25 09:00:53;;;;;;;25.17;14.73;;;12.80;99.90;;;;;;5064926;28;20225;-60
2021/03/25 09:03:23;;;;;;;22.90;12.47;;;12.80;99.90;;;;;;5087267;28;20202;-62
2021/03/25 09:06:05;;;;;;;23.83;11.50;;;13.00;99.90;;;;;;5071690;28;20265;-61
2021/03/25 09:08:35;;;;;;;18.00;11.60;;;12.90;99.90;;;;;;5087863;28;20274;-61
2021/03/25 09:11:05;;;;;;;22.50;11.27;;;12.90;99.90;;;;;;5087509;28;21713;-60
2021/03/25 09:13:37;;;;;;;17.73;10.97;;;12.70;99.90;;;;;;5088589;28;20719;-61
2021/03/25 09:16:18;;;;;;;20.27;12.10;;;12.60;99.90;;;;;;5085529;28;20255;-60
2021/03/25 09:18:47;;;;;;;20.50;12.43;;;12.40;99.90;;;;;;5086464;28;20734;-60
2021/03/25 09:21:20;;;;;;;16.17;11.23;;;12.60;99.90;;;;;;5084363;28;20199;-60
2021/03/25 09:24:08;;;;;;;19.07;12.73;;;12.90;99.90;;;;;;5070932;28;20234;-60
2021/03/25 09:27:00;;;;;;;19.90;12.90;;;12.40;99.90;;;;;;5063935;28;20216;-61
2021/03/25 09:29:29;;;;;;;21.70;12.50;;;12.60;99.90;;;;;;5087014;28;20618;-61
2021/03/25 09:31:55;;;;;;;25.00;13.87;;;12.50;99.90;;;;;;5083337;28;20198;-61
2021/03/25 09:34:25;;;;;;;21.37;13.77;;;12.30;99.90;;;;;;5070170;28;20582;-61
2021/03/25 09:36:59;;;;;;;24.60;13.90;;;11.90;99.90;;;;;;5088171;28;20858;-62
2021/03/25 09:39:37;;;;;;;26.57;14.30;;;11.90;99.90;;;;;;5090544;28;20205;-61
2021/03/25 09:42:26;;;;;;;25.60;14.77;;;12.10;99.90;;;;;;5088536;28;20229;-61
2021/03/25 09:45:31;;;;;;;22.67;12.87;;;12.10;99.90;;;;;;5089955;28;20963;-60
2021/03/25 09:48:00;;;;;;;19.83;12.10;;;11.80;99.90;;;;;;5086747;28;20198;-61
2021/03/25 09:50:27;;;;;;;21.83;11.73;;;11.90;99.90;;;;;;5089521;28;20204;-61
2021/03/25 09:53:16;;;;;;;23.43;11.60;;;12.00;99.90;;;;;;5085296;28;20197;-61
2021/03/25 09:56:22;;;;;;;14.33;9.90;;;11.90;99.90;;;;;;5090018;28;20297;-61
2021/03/25 09:58:49;;;;;;;14.20;10.00;;;11.70;99.90;;;;;;5091699;28;20228;-61
2021/03/25 10:01:43;;;;;;;17.17;8.47;;;11.80;99.90;;;;;;5089964;28;20217;-61
2021/03/25 10:04:33;;;;;;;14.77;8.83;;;11.90;99.90;;;;;;5070917;28;20516;-61
2021/03/25 10:07:22;;;;;;;16.97;10.10;;;11.90;99.90;;;;;;5069016;28;20299;-62
2021/03/25 10:09:58;;;;;;;17.40;10.07;;;11.90;99.90;;;;;;5090135;28;20694;-62
2021/03/25 10:12:52;;;;;;;18.53;10.53;;;12.00;99.90;;;;;;5086854;28;20216;-61
2021/03/25 10:15:42;;;;;;;18.43;11.23;;;11.70;99.90;;;;;;5089651;28;20398;-62
2021/03/25 10:18:22;;;;;;;16.37;11.30;;;11.90;99.90;;;;;;5089908;28;20292;-61
2021/03/25 10:20:53;;;;;;;16.40;10.20;;;11.70;99.90;;;;;;5087400;28;20200;-63
2021/03/25 10:23:24;;;;;;;19.83;11.37;;;11.60;99.90;;;;;;5076078;28;20197;-58
2021/03/25 10:25:54;;;;;;;19.70;12.83;;;11.50;99.90;;;;;;5072773;28;20680;-60
2021/03/25 10:28:27;;;;;;;25.33;14.60;;;11.40;99.90;;;;;;5088662;28;20202;-59
2021/03/25 10:31:02;;;;;;;25.33;14.07;;;11.20;99.90;;;;;;5089148;28;20198;-59
2021/03/25 10:33:29;;;;;;;22.47;15.10;;;11.20;99.90;;;;;;5090110;28;20272;-60
2021/03/25 10:35:59;;;;;;;23.17;14.50;;;11.40;99.90;;;;;;5087622;28;20206;-60
2021/03/25 10:38:38;;;;;;;27.97;15.70;;;11.70;99.90;;;;;;5069845;28;20212;-60
2021/03/25 10:41:04;;;;;;;25.30;15.13;;;11.50;99.90;;;;;;5086689;28;20252;-61
2021/03/25 10:43:34;;;;;;;27.27;16.23;;;11.30;99.90;;;;;;5085822;28;20244;-60
2021/03/25 10:46:05;;;;;;;22.10;14.03;;;11.10;99.90;;;;;;5089175;28;20229;-60
2021/03/25 10:48:39;;;;;;;27.10;13.60;;;11.10;99.90;;;;;;5086372;28;20649;-59
2021/03/25 10:51:15;;;;;;;19.33;13.03;;;11.20;99.90;;;;;;5086490;28;20223;-62
2021/03/25 10:53:56;;;;;;;20.13;13.00;;;11.20;99.90;;;;;;5088367;28;20203;-59
2021/03/25 10:56:37;;;;;;;19.70;12.20;;;11.10;99.90;;;;;;5087940;28;20230;-60
2021/03/25 10:59:11;;;;;;;21.30;13.63;;;11.10;99.90;;;;;;5088656;28;20231;-60
2021/03/25 11:01:50;;;;;;;25.43;14.90;;;11.30;99.90;;;;;;5089604;28;20207;-59
2021/03/25 11:04:27;;;;;;;29.13;16.07;;;11.30;99.90;;;;;;5087575;28;20833;-62
2021/03/25 11:06:55;;;;;;;29.23;17.30;;;11.30;99.90;;;;;;5087754;28;20588;-60
2021/03/25 11:09:28;;;;;;;29.00;15.57;;;11.40;99.90;;;;;;5088513;28;20225;-60
2021/03/25 11:12:10;;;;;;;24.90;15.20;;;11.30;99.90;;;;;;5089689;28;20198;-60
2021/03/25 11:14:43;;;;;;;24.37;15.23;;;11.10;99.90;;;;;;5087123;28;20675;-61
2021/03/25 11:17:20;;;;;;;22.33;13.80;;;10.90;99.90;;;;;;5084911;28;20587;-60
2021/03/25 11:19:59;;;;;;;22.90;14.17;;;10.90;99.90;;;;;;5086997;28;20699;-59
2021/03/25 11:22:27;;;;;;;20.13;12.70;;;10.90;99.90;;;;;;5089310;28;20190;-59
2021/03/25 11:24:57;;;;;;;20.70;12.63;;;10.80;99.90;;;;;;5084541;28;20262;-60
2021/03/25 11:27:26;;;;;;;24.03;13.47;;;10.80;99.90;;;;;;5072945;28;20208;-60
2021/03/25 11:30:24;;;;;;;20.70;12.57;;;10.80;99.90;;;;;;5087784;28;20199;-60
2021/03/25 11:32:51;;;;;;;24.97;13.43;;;10.80;99.90;;;;;;5069225;28;20221;-62
2021/03/25 11:35:29;;;;;;;21.27;13.60;;;10.90;99.90;;;;;;5067093;28;20208;-62
2021/03/25 11:38:14;;;;;;;19.03;12.30;;;11.10;99.90;;;;;;5081318;28;20727;-62
2021/03/25 11:40:43;;;;;;;21.87;12.97;;;11.10;99.90;;;;;;5082000;28;20628;-61
2021/03/25 11:43:22;;;;;;;19.27;12.50;;;11.00;99.90;;;;;;5078194;28;20625;-59
2021/03/25 11:45:55;;;;;;;29.40;14.27;;;11.00;99.90;;;;;;5081843;28;20229;-60
2021/03/25 11:48:30;;;;;;;24.50;13.93;;;11.00;99.90;;;;;;5086350;28;20251;-59
2021/03/25 11:51:17;;;;;;;25.27;14.00;;;10.90;99.90;;;;;;5083267;28;20263;-59
2021/03/25 11:53:48;;;;;;;23.90;13.70;;;10.90;99.90;;;;;;5082829;28;20212;-59
2021/03/25 11:56:31;;;;;;;25.27;14.03;;;11.00;99.90;;;;;;5081870;28;20226;-60
2021/03/25 11:59:13;;;;;;;32.87;16.73;;;10.90;99.90;;;;;;5088870;28;20203;-59
2021/03/25 12:01:41;;;;;;;28.67;16.13;;;10.90;99.90;;;;;;5084352;28;20255;-62
2021/03/25 12:04:14;;;;;;;27.77;15.43;;;11.00;99.90;;;;;;5089612;28;20335;-59
2021/03/25 12:07:10;;;;;;;28.53;15.13;;;10.90;99.90;;;;;;5087041;28;20276;-60
2021/03/25 12:09:55;;;;;;;28.43;14.83;;;11.00;99.90;;;;;;5083885;28;20204;-60
2021/03/25 12:12:22;;;;;;;31.90;16.53;;;11.10;99.90;;;;;;5086815;28;20214;-65
2021/03/25 12:14:48;;;;;;;34.17;16.53;;;11.40;99.90;;;;;;5053549;28;20232;-66
2021/03/25 12:17:14;;;;;;;26.37;14.73;;;11.60;99.90;;;;;;5069068;28;20203;-66
2021/03/25 12:19:53;;;;;;;24.17;14.20;;;11.70;99.90;;;;;;5081994;28;20856;-65
2021/03/25 12:22:28;;;;;;;23.80;13.87;;;11.40;99.90;;;;;;5071777;28;20496;-67
2021/03/25 12:24:54;;;;;;;25.03;14.57;;;11.40;99.90;;;;;;5084104;28;20264;-65
2021/03/25 12:27:24;;;;;;;26.03;14.53;;;11.60;99.90;;;;;;5087325;28;20257;-65
2021/03/25 12:29:55;;;;;;;20.27;13.90;;;12.00;99.90;;;;;;5090201;28;20198;-66
2021/03/25 12:32:29;;;;;;;23.67;13.10;;;12.10;99.90;;;;;;5088497;28;20189;-65
2021/03/25 12:35:19;;;;;;;27.07;14.43;;;12.10;99.90;;;;;;5091522;28;20209;-65
2021/03/25 12:37:48;;;;;;;22.43;13.50;;;12.10;99.90;;;;;;5081941;28;20252;-67
2021/03/25 12:40:17;;;;;;;20.57;12.47;;;12.30;99.90;;;;;;5084630;28;20199;-65
2021/03/25 12:42:43;;;;;;;24.80;14.13;;;12.00;99.90;;;;;;5080405;28;20205;-66
2021/03/25 12:45:32;;;;;;;21.30;12.17;;;12.10;99.90;;;;;;5086071;28;20270;-65
2021/03/25 12:47:59;;;;;;;21.37;12.73;;;11.90;99.90;;;;;;5081803;28;20209;-65
2021/03/25 12:50:26;;;;;;;19.30;11.50;;;11.90;99.90;;;;;;5080050;28;20198;-66
2021/03/25 12:52:53;;;;;;;14.40;9.73;;;11.80;99.90;;;;;;5080995;28;20248;-66
2021/03/25 12:55:20;;;;;;;14.30;8.63;;;11.70;99.90;;;;;;5080121;28;20190;-65
2021/03/25 12:57:49;;;;;;;13.53;8.33;;;11.80;99.90;;;;;;5071208;28;20214;-66
2021/03/25 13:00:23;;;;;;;20.30;9.20;;;11.80;99.90;;;;;;5085268;28;20296;-66
2021/03/25 13:02:50;;;;;;;13.13;9.80;;;11.70;99.90;;;;;;5078353;28;20203;-66
2021/03/25 13:05:16;;;;;;;15.20;9.50;;;11.70;99.90;;;;;;5074479;28;20212;-65
2021/03/25 13:07:44;;;;;;;15.60;9.37;;;11.70;99.90;;;;;;5087711;28;20221;-65
2021/03/25 13:10:11;;;;;;;16.47;10.17;;;11.70;99.90;;;;;;5054012;28;20199;-66
2021/03/25 13:12:37;;;;;;;17.23;9.70;;;11.70;99.90;;;;;;5061975;28;20217;-66
2021/03/25 13:15:05;;;;;;;15.33;10.27;;;11.70;99.90;;;;;;5079817;28;20272;-65
2021/03/25 13:17:31;;;;;;;16.33;10.00;;;11.80;99.90;;;;;;5064429;28;20596;-66
2021/03/25 13:20:20;;;;;;;20.33;9.73;;;11.70;99.90;;;;;;5074406;28;20697;-66